sensor_id;sensor_type;location;lat;lon;timestamp;P1;durP1;ratioP1;P2;durP2;ratioP2
62102;SDS011;48077;48.104;11.702;2023-02-27T17:50:08;98.70;;;90.60;;
62102;SDS011;48077;48.104;11.702;2023-02-27T17:52:36;86.40;;;79.75;;
62102;SDS011;48077;48.104;11.702;2023-02-27T17:54:59;80.53;;;74.03;;
62102;SDS011;48077;48.104;11.702;2023-02-27T17:57:22;77.63;;;71.85;;
62102;SDS011;48077;48.104;11.702;2023-02-27T17:59:46;75.85;;;69.90;;
62102;SDS011;48077;48.104;11.702;2023-02-27T18:02:09;74.50;;;68.57;;
62102;SDS011;48077;48.104;11.702;2023-02-27T18:04:34;74.03;;;68.05;;
62102;SDS011;48077;48.104;11.702;2023-02-27T18:06:58;72.20;;;66.65;;
62102;SDS011;48077;48.104;11.702;2023-02-27T18:09:21;71.22;;;65.88;;
62102;SDS011;48077;48.104;11.702;2023-02-27T18:11:45;71.28;;;66.03;;
62102;SDS011;48077;48.104;11.702;2023-02-27T18:14:08;69.53;;;64.03;;
62102;SDS011;48077;48.104;11.702;2023-02-27T18:16:31;71.18;;;65.65;;
62102;SDS011;48077;48.104;11.702;2023-02-27T18:18:55;68.60;;;63.42;;
62102;SDS011;48077;48.104;11.702;2023-02-27T18:21:23;70.57;;;64.90;;
62102;SDS011;48077;48.104;11.702;2023-02-27T18:23:47;67.90;;;62.45;;
62102;SDS011;48077;48.104;11.702;2023-02-27T18:26:12;70.53;;;65.00;;
62102;SDS011;48077;48.104;11.702;2023-02-27T18:28:37;66.57;;;61.35;;
62102;SDS011;48077;48.104;11.702;2023-02-27T18:31:01;68.65;;;63.20;;
62102;SDS011;48077;48.104;11.702;2023-02-27T18:33:27;68.38;;;62.80;;
62102;SDS011;48077;48.104;11.702;2023-02-27T18:35:50;66.40;;;60.97;;
62102;SDS011;48077;48.104;11.702;2023-02-27T18:38:14;69.32;;;63.80;;
62102;SDS011;48077;48.104;11.702;2023-02-27T18:40:37;67.75;;;62.40;;
62102;SDS011;48077;48.104;11.702;2023-02-27T18:43:01;69.18;;;63.65;;
62102;SDS011;48077;48.104;11.702;2023-02-27T18:45:24;68.65;;;63.20;;
62102;SDS011;48077;48.104;11.702;2023-02-27T18:47:47;66.97;;;61.83;;
62102;SDS011;48077;48.104;11.702;2023-02-27T18:50:11;69.40;;;63.72;;
62102;SDS011;48077;48.104;11.702;2023-02-27T18:52:35;66.47;;;61.45;;
62102;SDS011;48077;48.104;11.702;2023-02-27T18:54:58;67.43;;;62.17;;
62102;SDS011;48077;48.104;11.702;2023-02-27T18:57:22;68.63;;;62.47;;
62102;SDS011;48077;48.104;11.702;2023-02-27T18:59:45;68.13;;;62.83;;
62102;SDS011;48077;48.104;11.702;2023-02-27T19:02:12;70.65;;;64.97;;
62102;SDS011;48077;48.104;11.702;2023-02-27T19:04:36;70.85;;;65.38;;
62102;SDS011;48077;48.104;11.702;2023-02-27T19:06:59;69.90;;;64.03;;
62102;SDS011;48077;48.104;11.702;2023-02-27T19:09:23;70.20;;;64.38;;
62102;SDS011;48077;48.104;11.702;2023-02-27T19:11:52;72.30;;;66.45;;
62102;SDS011;48077;48.104;11.702;2023-02-27T19:14:16;71.20;;;65.28;;
62102;SDS011;48077;48.104;11.702;2023-02-27T19:16:39;69.28;;;64.00;;
62102;SDS011;48077;48.104;11.702;2023-02-27T19:19:03;71.63;;;65.88;;
62102;SDS011;48077;48.104;11.702;2023-02-27T19:21:27;70.32;;;64.45;;
62102;SDS011;48077;48.104;11.702;2023-02-27T19:23:50;71.32;;;65.78;;
62102;SDS011;48077;48.104;11.702;2023-02-27T19:26:14;69.60;;;64.43;;
62102;SDS011;48077;48.104;11.702;2023-02-27T19:28:38;71.35;;;65.78;;
62102;SDS011;48077;48.104;11.702;2023-02-27T19:31:08;71.13;;;65.30;;
62102;SDS011;48077;48.104;11.702;2023-02-27T19:33:32;70.70;;;64.97;;
62102;SDS011;48077;48.104;11.702;2023-02-27T19:35:56;72.68;;;67.07;;
62102;SDS011;48077;48.104;11.702;2023-02-27T19:38:19;71.47;;;65.55;;
62102;SDS011;48077;48.104;11.702;2023-02-27T19:40:43;71.07;;;65.53;;
62102;SDS011;48077;48.104;11.702;2023-02-27T19:43:07;71.93;;;65.97;;
62102;SDS011;48077;48.104;11.702;2023-02-27T19:45:30;69.82;;;64.53;;
62102;SDS011;48077;48.104;11.702;2023-02-27T19:47:54;69.97;;;64.53;;
62102;SDS011;48077;48.104;11.702;2023-02-27T19:50:18;69.30;;;63.83;;
62102;SDS011;48077;48.104;11.702;2023-02-27T19:52:41;68.90;;;63.72;;
62102;SDS011;48077;48.104;11.702;2023-02-27T19:55:05;70.15;;;64.53;;
62102;SDS011;48077;48.104;11.702;2023-02-27T19:57:28;69.05;;;63.90;;
62102;SDS011;48077;48.104;11.702;2023-02-27T19:59:51;69.65;;;64.20;;
62102;SDS011;48077;48.104;11.702;2023-02-27T20:02:15;72.82;;;66.50;;
62102;SDS011;48077;48.104;11.702;2023-02-27T20:04:38;70.65;;;64.80;;
62102;SDS011;48077;48.104;11.702;2023-02-27T20:07:02;71.55;;;65.93;;
62102;SDS011;48077;48.104;11.702;2023-02-27T20:09:25;67.68;;;62.33;;
62102;SDS011;48077;48.104;11.702;2023-02-27T20:11:50;69.22;;;63.83;;
62102;SDS011;48077;48.104;11.702;2023-02-27T20:14:15;74.72;;;68.60;;
62102;SDS011;48077;48.104;11.702;2023-02-27T20:16:39;69.43;;;63.78;;
62102;SDS011;48077;48.104;11.702;2023-02-27T20:19:04;68.85;;;63.47;;
62102;SDS011;48077;48.104;11.702;2023-02-27T20:21:29;66.28;;;61.22;;
62102;SDS011;48077;48.104;11.702;2023-02-27T20:23:56;66.38;;;61.55;;
62102;SDS011;48077;48.104;11.702;2023-02-27T20:31:14;75.78;;;69.82;;
62102;SDS011;48077;48.104;11.702;2023-02-27T20:33:39;73.00;;;67.55;;
62102;SDS011;48077;48.104;11.702;2023-02-27T20:36:04;69.68;;;64.35;;
62102;SDS011;48077;48.104;11.702;2023-02-27T20:38:28;67.78;;;62.65;;
62102;SDS011;48077;48.104;11.702;2023-02-27T20:40:57;67.18;;;62.30;;
62102;SDS011;48077;48.104;11.702;2023-02-27T20:43:23;67.45;;;62.33;;
62102;SDS011;48077;48.104;11.702;2023-02-27T20:45:46;68.50;;;62.95;;
62102;SDS011;48077;48.104;11.702;2023-02-27T20:48:10;68.03;;;62.70;;
62102;SDS011;48077;48.104;11.702;2023-02-27T20:50:33;68.57;;;63.33;;
62102;SDS011;48077;48.104;11.702;2023-02-27T20:52:57;66.25;;;61.45;;
62102;SDS011;48077;48.104;11.702;2023-02-27T20:55:20;69.03;;;63.60;;
62102;SDS011;48077;48.104;11.702;2023-02-27T20:57:43;68.20;;;63.05;;
62102;SDS011;48077;48.104;11.702;2023-02-27T21:00:07;67.22;;;62.38;;
62102;SDS011;48077;48.104;11.702;2023-02-27T21:02:34;69.03;;;63.80;;
62102;SDS011;48077;48.104;11.702;2023-02-27T21:04:59;67.80;;;62.65;;
62102;SDS011;48077;48.104;11.702;2023-02-27T21:07:23;68.10;;;62.95;;
62102;SDS011;48077;48.104;11.702;2023-02-27T21:09:46;66.68;;;61.53;;
62102;SDS011;48077;48.104;11.702;2023-02-27T21:12:10;71.43;;;65.95;;
62102;SDS011;48077;48.104;11.702;2023-02-27T21:14:34;68.85;;;63.25;;
62102;SDS011;48077;48.104;11.702;2023-02-27T21:16:57;69.10;;;63.80;;
62102;SDS011;48077;48.104;11.702;2023-02-27T21:19:21;69.68;;;64.30;;
62102;SDS011;48077;48.104;11.702;2023-02-27T21:21:44;67.20;;;61.97;;
62102;SDS011;48077;48.104;11.702;2023-02-27T21:24:08;68.38;;;63.13;;
62102;SDS011;48077;48.104;11.702;2023-02-27T21:26:32;68.15;;;62.95;;
62102;SDS011;48077;48.104;11.702;2023-02-27T21:29:01;67.80;;;62.63;;
62102;SDS011;48077;48.104;11.702;2023-02-27T21:31:29;68.55;;;63.42;;
62102;SDS011;48077;48.104;11.702;2023-02-27T21:33:54;67.95;;;62.90;;
62102;SDS011;48077;48.104;11.702;2023-02-27T21:36:22;69.50;;;63.63;;
62102;SDS011;48077;48.104;11.702;2023-02-27T21:38:47;68.13;;;63.17;;
62102;SDS011;48077;48.104;11.702;2023-02-27T21:41:11;65.72;;;60.65;;
62102;SDS011;48077;48.104;11.702;2023-02-27T21:43:35;64.65;;;59.80;;
62102;SDS011;48077;48.104;11.702;2023-02-27T21:46:05;69.32;;;63.78;;
62102;SDS011;48077;48.104;11.702;2023-02-27T21:48:29;67.03;;;61.90;;
62102;SDS011;48077;48.104;11.702;2023-02-27T21:50:56;65.85;;;61.00;;
62102;SDS011;48077;48.104;11.702;2023-02-27T21:53:20;67.20;;;61.90;;
62102;SDS011;48077;48.104;11.702;2023-02-27T21:55:43;66.90;;;61.90;;
62102;SDS011;48077;48.104;11.702;2023-02-27T21:58:06;66.05;;;61.05;;
62102;SDS011;48077;48.104;11.702;2023-02-27T22:00:32;66.35;;;61.28;;
62102;SDS011;48077;48.104;11.702;2023-02-27T22:02:55;66.28;;;61.22;;
62102;SDS011;48077;48.104;11.702;2023-02-27T22:05:19;67.00;;;61.65;;
62102;SDS011;48077;48.104;11.702;2023-02-27T22:07:42;67.55;;;62.15;;
62102;SDS011;48077;48.104;11.702;2023-02-27T22:10:06;68.95;;;63.92;;
62102;SDS011;48077;48.104;11.702;2023-02-27T22:12:40;70.13;;;64.85;;
62102;SDS011;48077;48.104;11.702;2023-02-27T22:15:03;67.75;;;62.50;;
62102;SDS011;48077;48.104;11.702;2023-02-27T22:17:29;67.40;;;62.28;;
62102;SDS011;48077;48.104;11.702;2023-02-27T22:19:52;66.97;;;61.72;;
62102;SDS011;48077;48.104;11.702;2023-02-27T22:22:21;65.95;;;60.70;;
62102;SDS011;48077;48.104;11.702;2023-02-27T22:24:47;66.53;;;61.58;;
62102;SDS011;48077;48.104;11.702;2023-02-27T22:27:10;66.95;;;61.88;;
62102;SDS011;48077;48.104;11.702;2023-02-27T22:29:34;66.70;;;61.85;;
62102;SDS011;48077;48.104;11.702;2023-02-27T22:31:57;72.28;;;66.00;;
62102;SDS011;48077;48.104;11.702;2023-02-27T22:34:20;72.63;;;66.78;;
62102;SDS011;48077;48.104;11.702;2023-02-27T22:36:45;66.70;;;61.90;;
62102;SDS011;48077;48.104;11.702;2023-02-27T22:39:10;65.95;;;60.90;;
62102;SDS011;48077;48.104;11.702;2023-02-27T22:41:36;69.85;;;64.30;;
62102;SDS011;48077;48.104;11.702;2023-02-27T22:44:01;67.07;;;61.92;;
62102;SDS011;48077;48.104;11.702;2023-02-27T22:46:45;70.50;;;64.72;;
62102;SDS011;48077;48.104;11.702;2023-02-27T22:49:11;74.13;;;68.18;;
62102;SDS011;48077;48.104;11.702;2023-02-27T22:51:36;70.45;;;64.68;;
62102;SDS011;48077;48.104;11.702;2023-02-27T22:54:01;70.80;;;65.15;;
62102;SDS011;48077;48.104;11.702;2023-02-27T22:56:26;69.85;;;64.30;;
62102;SDS011;48077;48.104;11.702;2023-02-27T22:58:50;69.53;;;64.25;;
62102;SDS011;48077;48.104;11.702;2023-02-27T23:01:14;70.85;;;65.22;;
62102;SDS011;48077;48.104;11.702;2023-02-27T23:03:38;72.07;;;66.13;;
62102;SDS011;48077;48.104;11.702;2023-02-27T23:06:03;68.07;;;63.05;;
62102;SDS011;48077;48.104;11.702;2023-02-27T23:08:27;67.97;;;62.65;;
62102;SDS011;48077;48.104;11.702;2023-02-27T23:10:50;69.95;;;64.53;;
62102;SDS011;48077;48.104;11.702;2023-02-27T23:13:14;70.40;;;65.07;;
62102;SDS011;48077;48.104;11.702;2023-02-27T23:15:37;71.50;;;65.90;;
62102;SDS011;48077;48.104;11.702;2023-02-27T23:18:01;70.68;;;65.07;;
62102;SDS011;48077;48.104;11.702;2023-02-27T23:20:24;70.88;;;65.28;;
62102;SDS011;48077;48.104;11.702;2023-02-27T23:22:50;70.10;;;64.82;;
62102;SDS011;48077;48.104;11.702;2023-02-27T23:25:14;72.80;;;66.88;;
62102;SDS011;48077;48.104;11.702;2023-02-27T23:27:37;71.47;;;65.72;;
62102;SDS011;48077;48.104;11.702;2023-02-27T23:30:00;71.82;;;66.35;;
62102;SDS011;48077;48.104;11.702;2023-02-27T23:32:24;73.22;;;67.43;;
62102;SDS011;48077;48.104;11.702;2023-02-27T23:34:47;72.40;;;66.72;;
62102;SDS011;48077;48.104;11.702;2023-02-27T23:37:10;72.15;;;66.55;;
62102;SDS011;48077;48.104;11.702;2023-02-27T23:39:34;75.15;;;69.18;;
62102;SDS011;48077;48.104;11.702;2023-02-27T23:41:57;74.25;;;68.20;;
62102;SDS011;48077;48.104;11.702;2023-02-27T23:44:20;72.93;;;66.95;;
62102;SDS011;48077;48.104;11.702;2023-02-27T23:46:44;73.38;;;67.90;;
62102;SDS011;48077;48.104;11.702;2023-02-27T23:49:10;73.82;;;67.88;;
62102;SDS011;48077;48.104;11.702;2023-02-27T23:51:33;73.28;;;67.55;;
62102;SDS011;48077;48.104;11.702;2023-02-27T23:53:57;72.50;;;66.95;;
62102;SDS011;48077;48.104;11.702;2023-02-27T23:56:22;73.05;;;67.00;;
62102;SDS011;48077;48.104;11.702;2023-02-27T23:58:47;71.63;;;66.10;;
